sensor_id;sensor_type;location;lat;lon;timestamp;P1;durP1;ratioP1;P2;durP2;ratioP2
36379;SDS011;22411;53.016;18.632;2022-10-15T00:02:24;81.30;;;55.88;;
36379;SDS011;22411;53.016;18.632;2022-10-15T00:04:50;83.78;;;54.60;;
36379;SDS011;22411;53.016;18.632;2022-10-15T00:07:16;88.97;;;56.47;;
36379;SDS011;22411;53.016;18.632;2022-10-15T00:09:42;77.88;;;52.35;;
36379;SDS011;22411;53.016;18.632;2022-10-15T00:12:07;85.60;;;54.45;;
36379;SDS011;22411;53.016;18.632;2022-10-15T00:14:33;79.05;;;52.20;;
36379;SDS011;22411;53.016;18.632;2022-10-15T00:16:59;79.40;;;52.78;;
36379;SDS011;22411;53.016;18.632;2022-10-15T00:19:25;80.00;;;52.33;;
36379;SDS011;22411;53.016;18.632;2022-10-15T00:21:51;85.10;;;54.67;;
36379;SDS011;22411;53.016;18.632;2022-10-15T00:24:17;88.82;;;55.38;;
36379;SDS011;22411;53.016;18.632;2022-10-15T00:26:42;78.90;;;52.08;;
36379;SDS011;22411;53.016;18.632;2022-10-15T00:29:08;79.90;;;51.72;;
36379;SDS011;22411;53.016;18.632;2022-10-15T00:31:37;80.85;;;53.00;;
36379;SDS011;22411;53.016;18.632;2022-10-15T00:34:03;84.88;;;55.58;;
36379;SDS011;22411;53.016;18.632;2022-10-15T00:36:31;77.68;;;52.97;;
36379;SDS011;22411;53.016;18.632;2022-10-15T00:38:59;82.78;;;55.00;;
36379;SDS011;22411;53.016;18.632;2022-10-15T00:41:26;77.60;;;51.80;;
36379;SDS011;22411;53.016;18.632;2022-10-15T00:47:13;80.82;;;54.05;;
36379;SDS011;22411;53.016;18.632;2022-10-15T00:50:03;77.53;;;51.45;;
36379;SDS011;22411;53.016;18.632;2022-10-15T00:52:37;78.68;;;51.17;;
36379;SDS011;22411;53.016;18.632;2022-10-15T00:55:10;79.25;;;52.38;;
36379;SDS011;22411;53.016;18.632;2022-10-15T00:57:44;78.82;;;51.67;;
36379;SDS011;22411;53.016;18.632;2022-10-15T01:00:14;82.93;;;51.43;;
36379;SDS011;22411;53.016;18.632;2022-10-15T01:02:42;76.75;;;50.30;;
36379;SDS011;22411;53.016;18.632;2022-10-15T01:05:09;80.82;;;53.33;;
36379;SDS011;22411;53.016;18.632;2022-10-15T01:07:36;79.82;;;52.53;;
36379;SDS011;22411;53.016;18.632;2022-10-15T01:10:03;81.80;;;53.08;;
36379;SDS011;22411;53.016;18.632;2022-10-15T01:12:51;83.57;;;51.88;;
36379;SDS011;22411;53.016;18.632;2022-10-15T01:29:28;80.60;;;52.85;;
36379;SDS011;22411;53.016;18.632;2022-10-15T01:32:02;81.70;;;50.58;;
36379;SDS011;22411;53.016;18.632;2022-10-15T01:40:01;79.95;;;51.28;;
36379;SDS011;22411;53.016;18.632;2022-10-15T01:42:38;83.07;;;51.30;;
36379;SDS011;22411;53.016;18.632;2022-10-15T01:45:12;73.75;;;47.67;;
36379;SDS011;22411;53.016;18.632;2022-10-15T01:47:48;77.43;;;49.65;;
36379;SDS011;22411;53.016;18.632;2022-10-15T01:50:17;75.57;;;49.08;;
36379;SDS011;22411;53.016;18.632;2022-10-15T01:52:47;83.10;;;52.13;;
36379;SDS011;22411;53.016;18.632;2022-10-15T01:55:15;75.78;;;48.83;;
36379;SDS011;22411;53.016;18.632;2022-10-15T01:57:45;80.78;;;49.60;;
36379;SDS011;22411;53.016;18.632;2022-10-15T02:00:13;82.82;;;51.90;;
36379;SDS011;22411;53.016;18.632;2022-10-15T02:02:39;84.07;;;50.08;;
36379;SDS011;22411;53.016;18.632;2022-10-15T02:05:06;82.03;;;48.90;;
36379;SDS011;22411;53.016;18.632;2022-10-15T02:07:46;78.85;;;49.38;;
36379;SDS011;22411;53.016;18.632;2022-10-15T02:21:07;75.13;;;48.40;;
36379;SDS011;22411;53.016;18.632;2022-10-15T02:26:10;83.65;;;52.10;;
36379;SDS011;22411;53.016;18.632;2022-10-15T02:28:40;78.40;;;50.13;;
36379;SDS011;22411;53.016;18.632;2022-10-15T02:31:09;82.03;;;50.58;;
36379;SDS011;22411;53.016;18.632;2022-10-15T02:33:38;82.88;;;52.85;;
36379;SDS011;22411;53.016;18.632;2022-10-15T02:36:05;76.40;;;50.35;;
36379;SDS011;22411;53.016;18.632;2022-10-15T02:38:33;82.60;;;49.45;;
36379;SDS011;22411;53.016;18.632;2022-10-15T02:41:01;83.53;;;51.08;;
36379;SDS011;22411;53.016;18.632;2022-10-15T02:43:27;76.60;;;49.00;;
36379;SDS011;22411;53.016;18.632;2022-10-15T02:45:53;78.47;;;50.85;;
36379;SDS011;22411;53.016;18.632;2022-10-15T02:48:19;79.43;;;48.70;;
36379;SDS011;22411;53.016;18.632;2022-10-15T02:50:45;76.97;;;49.33;;
36379;SDS011;22411;53.016;18.632;2022-10-15T02:53:11;79.03;;;49.33;;
36379;SDS011;22411;53.016;18.632;2022-10-15T02:55:36;82.40;;;49.55;;
36379;SDS011;22411;53.016;18.632;2022-10-15T02:58:02;76.05;;;49.83;;
36379;SDS011;22411;53.016;18.632;2022-10-15T03:00:29;77.40;;;49.10;;
36379;SDS011;22411;53.016;18.632;2022-10-15T03:02:55;79.57;;;50.25;;
36379;SDS011;22411;53.016;18.632;2022-10-15T03:05:21;78.05;;;49.42;;
36379;SDS011;22411;53.016;18.632;2022-10-15T03:07:47;83.68;;;51.05;;
36379;SDS011;22411;53.016;18.632;2022-10-15T03:10:13;73.80;;;46.67;;
36379;SDS011;22411;53.016;18.632;2022-10-15T03:12:39;73.75;;;48.67;;
36379;SDS011;22411;53.016;18.632;2022-10-15T03:15:06;76.80;;;48.70;;
36379;SDS011;22411;53.016;18.632;2022-10-15T03:17:32;80.10;;;50.15;;
36379;SDS011;22411;53.016;18.632;2022-10-15T03:19:58;79.97;;;49.92;;
36379;SDS011;22411;53.016;18.632;2022-10-15T03:22:24;80.32;;;50.55;;
36379;SDS011;22411;53.016;18.632;2022-10-15T03:24:49;77.47;;;48.42;;
36379;SDS011;22411;53.016;18.632;2022-10-15T03:27:15;82.53;;;49.13;;
36379;SDS011;22411;53.016;18.632;2022-10-15T03:29:41;79.18;;;48.72;;
36379;SDS011;22411;53.016;18.632;2022-10-15T03:32:07;74.63;;;48.00;;
36379;SDS011;22411;53.016;18.632;2022-10-15T03:34:33;78.45;;;49.10;;
36379;SDS011;22411;53.016;18.632;2022-10-15T03:36:59;73.93;;;47.25;;
36379;SDS011;22411;53.016;18.632;2022-10-15T03:39:25;79.05;;;46.92;;
36379;SDS011;22411;53.016;18.632;2022-10-15T03:41:53;77.03;;;48.03;;
36379;SDS011;22411;53.016;18.632;2022-10-15T03:44:20;77.32;;;48.50;;
36379;SDS011;22411;53.016;18.632;2022-10-15T03:46:46;69.20;;;47.08;;
36379;SDS011;22411;53.016;18.632;2022-10-15T03:49:11;75.55;;;48.55;;
36379;SDS011;22411;53.016;18.632;2022-10-15T03:51:37;73.43;;;47.13;;
36379;SDS011;22411;53.016;18.632;2022-10-15T03:54:03;85.53;;;50.58;;
36379;SDS011;22411;53.016;18.632;2022-10-15T03:56:29;76.68;;;50.78;;
36379;SDS011;22411;53.016;18.632;2022-10-15T03:58:55;77.05;;;47.33;;
36379;SDS011;22411;53.016;18.632;2022-10-15T04:01:21;80.10;;;46.85;;
36379;SDS011;22411;53.016;18.632;2022-10-15T04:03:50;81.88;;;48.28;;
36379;SDS011;22411;53.016;18.632;2022-10-15T04:06:16;75.68;;;46.42;;
36379;SDS011;22411;53.016;18.632;2022-10-15T04:08:42;77.43;;;49.17;;
36379;SDS011;22411;53.016;18.632;2022-10-15T04:11:08;77.05;;;47.45;;
36379;SDS011;22411;53.016;18.632;2022-10-15T04:13:34;71.55;;;47.00;;
36379;SDS011;22411;53.016;18.632;2022-10-15T04:15:59;80.65;;;48.15;;
36379;SDS011;22411;53.016;18.632;2022-10-15T04:18:29;73.97;;;47.05;;
36379;SDS011;22411;53.016;18.632;2022-10-15T04:20:59;82.25;;;46.08;;
36379;SDS011;22411;53.016;18.632;2022-10-15T04:23:25;74.78;;;46.55;;
36379;SDS011;22411;53.016;18.632;2022-10-15T04:25:51;73.72;;;44.70;;
36379;SDS011;22411;53.016;18.632;2022-10-15T04:28:17;76.20;;;46.33;;
36379;SDS011;22411;53.016;18.632;2022-10-15T04:30:43;71.68;;;45.03;;
36379;SDS011;22411;53.016;18.632;2022-10-15T04:33:08;76.38;;;45.13;;
36379;SDS011;22411;53.016;18.632;2022-10-15T04:35:34;74.32;;;46.83;;
36379;SDS011;22411;53.016;18.632;2022-10-15T04:38:01;73.90;;;44.88;;
36379;SDS011;22411;53.016;18.632;2022-10-15T04:40:26;75.25;;;46.85;;
36379;SDS011;22411;53.016;18.632;2022-10-15T04:42:53;78.57;;;46.28;;
36379;SDS011;22411;53.016;18.632;2022-10-15T04:45:18;77.20;;;47.65;;
36379;SDS011;22411;53.016;18.632;2022-10-15T04:47:44;73.88;;;47.08;;
36379;SDS011;22411;53.016;18.632;2022-10-15T04:50:10;78.10;;;48.40;;
36379;SDS011;22411;53.016;18.632;2022-10-15T04:52:36;74.28;;;45.10;;
36379;SDS011;22411;53.016;18.632;2022-10-15T04:55:02;71.63;;;45.03;;
36379;SDS011;22411;53.016;18.632;2022-10-15T04:57:29;81.65;;;46.92;;
36379;SDS011;22411;53.016;18.632;2022-10-15T04:59:56;76.80;;;46.65;;
36379;SDS011;22411;53.016;18.632;2022-10-15T05:02:22;77.03;;;48.35;;
36379;SDS011;22411;53.016;18.632;2022-10-15T05:04:48;75.60;;;46.83;;
36379;SDS011;22411;53.016;18.632;2022-10-15T05:07:14;74.57;;;47.38;;
36379;SDS011;22411;53.016;18.632;2022-10-15T05:09:40;81.07;;;47.40;;
36379;SDS011;22411;53.016;18.632;2022-10-15T05:12:06;78.00;;;50.42;;
36379;SDS011;22411;53.016;18.632;2022-10-15T05:14:32;79.85;;;48.85;;
36379;SDS011;22411;53.016;18.632;2022-10-15T05:17:00;75.72;;;48.55;;
36379;SDS011;22411;53.016;18.632;2022-10-15T05:19:26;81.82;;;48.17;;
36379;SDS011;22411;53.016;18.632;2022-10-15T05:21:51;78.25;;;47.72;;
36379;SDS011;22411;53.016;18.632;2022-10-15T05:24:17;78.70;;;48.85;;
36379;SDS011;22411;53.016;18.632;2022-10-15T05:26:43;76.93;;;48.33;;
36379;SDS011;22411;53.016;18.632;2022-10-15T05:29:09;77.07;;;45.40;;
36379;SDS011;22411;53.016;18.632;2022-10-15T05:31:35;77.00;;;47.13;;
36379;SDS011;22411;53.016;18.632;2022-10-15T05:34:04;72.47;;;45.88;;
36379;SDS011;22411;53.016;18.632;2022-10-15T05:36:32;80.88;;;46.58;;
36379;SDS011;22411;53.016;18.632;2022-10-15T05:39:02;76.03;;;47.58;;
36379;SDS011;22411;53.016;18.632;2022-10-15T05:41:31;84.38;;;49.00;;
36379;SDS011;22411;53.016;18.632;2022-10-15T05:43:57;77.13;;;48.40;;
36379;SDS011;22411;53.016;18.632;2022-10-15T05:46:23;77.07;;;48.33;;
36379;SDS011;22411;53.016;18.632;2022-10-15T05:48:50;82.22;;;51.50;;
36379;SDS011;22411;53.016;18.632;2022-10-15T05:51:18;81.65;;;48.58;;
36379;SDS011;22411;53.016;18.632;2022-10-15T05:53:44;83.38;;;50.63;;
36379;SDS011;22411;53.016;18.632;2022-10-15T05:56:13;74.90;;;48.03;;
36379;SDS011;22411;53.016;18.632;2022-10-15T05:58:39;82.85;;;50.30;;
36379;SDS011;22411;53.016;18.632;2022-10-15T06:01:06;82.55;;;49.67;;
36379;SDS011;22411;53.016;18.632;2022-10-15T06:03:35;82.60;;;49.13;;
36379;SDS011;22411;53.016;18.632;2022-10-15T06:06:01;80.13;;;50.25;;
36379;SDS011;22411;53.016;18.632;2022-10-15T06:08:28;81.03;;;50.28;;
36379;SDS011;22411;53.016;18.632;2022-10-15T06:11:00;84.78;;;48.85;;
36379;SDS011;22411;53.016;18.632;2022-10-15T06:13:28;79.10;;;49.97;;
36379;SDS011;22411;53.016;18.632;2022-10-15T06:15:53;79.15;;;49.10;;
36379;SDS011;22411;53.016;18.632;2022-10-15T06:18:19;78.90;;;47.75;;
36379;SDS011;22411;53.016;18.632;2022-10-15T06:20:49;77.68;;;49.35;;
36379;SDS011;22411;53.016;18.632;2022-10-15T06:23:17;72.07;;;44.67;;
36379;SDS011;22411;53.016;18.632;2022-10-15T06:25:43;73.63;;;45.92;;
36379;SDS011;22411;53.016;18.632;2022-10-15T06:28:09;74.88;;;47.17;;
36379;SDS011;22411;53.016;18.632;2022-10-15T06:30:35;78.60;;;47.90;;
36379;SDS011;22411;53.016;18.632;2022-10-15T06:33:02;82.45;;;49.47;;
36379;SDS011;22411;53.016;18.632;2022-10-15T06:35:28;77.50;;;48.17;;
36379;SDS011;22411;53.016;18.632;2022-10-15T06:40:27;72.75;;;45.35;;
36379;SDS011;22411;53.016;18.632;2022-10-15T06:42:54;74.70;;;45.60;;
36379;SDS011;22411;53.016;18.632;2022-10-15T06:45:19;70.80;;;43.88;;
36379;SDS011;22411;53.016;18.632;2022-10-15T06:47:45;70.97;;;44.88;;
36379;SDS011;22411;53.016;18.632;2022-10-15T06:50:11;72.28;;;45.17;;
36379;SDS011;22411;53.016;18.632;2022-10-15T06:52:37;64.95;;;41.97;;
36379;SDS011;22411;53.016;18.632;2022-10-15T06:55:04;70.55;;;46.58;;
36379;SDS011;22411;53.016;18.632;2022-10-15T06:57:30;69.50;;;43.90;;
36379;SDS011;22411;53.016;18.632;2022-10-15T06:59:56;67.97;;;44.08;;
36379;SDS011;22411;53.016;18.632;2022-10-15T07:02:22;70.20;;;43.30;;
36379;SDS011;22411;53.016;18.632;2022-10-15T07:04:48;61.78;;;42.67;;
36379;SDS011;22411;53.016;18.632;2022-10-15T07:07:14;66.75;;;41.13;;
36379;SDS011;22411;53.016;18.632;2022-10-15T07:09:41;56.95;;;37.75;;
36379;SDS011;22411;53.016;18.632;2022-10-15T07:12:06;68.88;;;41.45;;
36379;SDS011;22411;53.016;18.632;2022-10-15T07:14:32;53.65;;;36.13;;
36379;SDS011;22411;53.016;18.632;2022-10-15T07:16:58;60.33;;;39.35;;
36379;SDS011;22411;53.016;18.632;2022-10-15T07:19:24;58.40;;;37.53;;
36379;SDS011;22411;53.016;18.632;2022-10-15T07:21:50;57.22;;;39.05;;
36379;SDS011;22411;53.016;18.632;2022-10-15T07:24:16;46.83;;;34.05;;
36379;SDS011;22411;53.016;18.632;2022-10-15T07:26:42;54.55;;;34.60;;
36379;SDS011;22411;53.016;18.632;2022-10-15T07:29:08;54.35;;;37.45;;
36379;SDS011;22411;53.016;18.632;2022-10-15T07:31:34;49.42;;;34.17;;
36379;SDS011;22411;53.016;18.632;2022-10-15T07:34:00;50.45;;;33.83;;
36379;SDS011;22411;53.016;18.632;2022-10-15T07:36:26;53.17;;;33.28;;
36379;SDS011;22411;53.016;18.632;2022-10-15T07:38:52;50.25;;;34.13;;
36379;SDS011;22411;53.016;18.632;2022-10-15T07:41:18;52.13;;;32.00;;
36379;SDS011;22411;53.016;18.632;2022-10-15T07:43:43;47.05;;;33.10;;
36379;SDS011;22411;53.016;18.632;2022-10-15T07:46:10;44.60;;;30.35;;
36379;SDS011;22411;53.016;18.632;2022-10-15T07:48:36;46.10;;;31.70;;
36379;SDS011;22411;53.016;18.632;2022-10-15T07:51:03;45.78;;;30.88;;
36379;SDS011;22411;53.016;18.632;2022-10-15T07:53:31;46.38;;;31.48;;
36379;SDS011;22411;53.016;18.632;2022-10-15T07:55:58;45.00;;;31.05;;
36379;SDS011;22411;53.016;18.632;2022-10-15T07:58:26;43.42;;;30.30;;
36379;SDS011;22411;53.016;18.632;2022-10-15T08:00:58;42.10;;;30.30;;
36379;SDS011;22411;53.016;18.632;2022-10-15T08:03:25;48.55;;;33.60;;
36379;SDS011;22411;53.016;18.632;2022-10-15T08:05:52;52.75;;;31.27;;
36379;SDS011;22411;53.016;18.632;2022-10-15T08:08:20;42.70;;;31.60;;
36379;SDS011;22411;53.016;18.632;2022-10-15T08:10:47;46.70;;;32.00;;
36379;SDS011;22411;53.016;18.632;2022-10-15T08:13:13;45.53;;;31.63;;
36379;SDS011;22411;53.016;18.632;2022-10-15T08:15:39;45.80;;;31.77;;
36379;SDS011;22411;53.016;18.632;2022-10-15T08:18:06;43.80;;;31.02;;
36379;SDS011;22411;53.016;18.632;2022-10-15T08:20:32;43.67;;;29.27;;
36379;SDS011;22411;53.016;18.632;2022-10-15T08:22:58;42.80;;;30.52;;
36379;SDS011;22411;53.016;18.632;2022-10-15T08:25:24;40.70;;;28.65;;
36379;SDS011;22411;53.016;18.632;2022-10-15T08:27:51;38.42;;;26.92;;
36379;SDS011;22411;53.016;18.632;2022-10-15T08:30:17;42.65;;;29.30;;
36379;SDS011;22411;53.016;18.632;2022-10-15T08:32:44;42.85;;;29.52;;
36379;SDS011;22411;53.016;18.632;2022-10-15T08:35:09;36.90;;;27.63;;
36379;SDS011;22411;53.016;18.632;2022-10-15T08:37:36;41.38;;;27.20;;
36379;SDS011;22411;53.016;18.632;2022-10-15T08:40:03;42.95;;;28.35;;
36379;SDS011;22411;53.016;18.632;2022-10-15T08:42:35;36.92;;;25.40;;
36379;SDS011;22411;53.016;18.632;2022-10-15T08:45:15;33.65;;;24.65;;
36379;SDS011;22411;53.016;18.632;2022-10-15T08:52:58;38.63;;;27.05;;
36379;SDS011;22411;53.016;18.632;2022-10-15T08:55:25;37.22;;;26.98;;
36379;SDS011;22411;53.016;18.632;2022-10-15T08:58:00;40.25;;;30.08;;
36379;SDS011;22411;53.016;18.632;2022-10-15T09:06:18;38.72;;;26.52;;
36379;SDS011;22411;53.016;18.632;2022-10-15T09:14:50;27.73;;;22.35;;
36379;SDS011;22411;53.016;18.632;2022-10-15T09:17:20;28.98;;;22.45;;
36379;SDS011;22411;53.016;18.632;2022-10-15T09:19:52;30.15;;;25.60;;
36379;SDS011;22411;53.016;18.632;2022-10-15T09:22:26;27.75;;;21.38;;
36379;SDS011;22411;53.016;18.632;2022-10-15T09:24:55;31.08;;;24.42;;
36379;SDS011;22411;53.016;18.632;2022-10-15T09:27:29;26.27;;;19.95;;
36379;SDS011;22411;53.016;18.632;2022-10-15T09:32:39;27.67;;;21.85;;
36379;SDS011;22411;53.016;18.632;2022-10-15T09:43:42;34.47;;;25.23;;
36379;SDS011;22411;53.016;18.632;2022-10-15T09:46:10;35.22;;;24.60;;
36379;SDS011;22411;53.016;18.632;2022-10-15T09:48:39;33.00;;;23.67;;
36379;SDS011;22411;53.016;18.632;2022-10-15T09:51:15;34.03;;;24.83;;
36379;SDS011;22411;53.016;18.632;2022-10-15T09:56:34;33.38;;;25.90;;
36379;SDS011;22411;53.016;18.632;2022-10-15T09:59:03;32.70;;;25.83;;
36379;SDS011;22411;53.016;18.632;2022-10-15T10:01:32;34.58;;;28.85;;
36379;SDS011;22411;53.016;18.632;2022-10-15T10:04:18;30.00;;;22.80;;
36379;SDS011;22411;53.016;18.632;2022-10-15T10:06:52;30.83;;;23.00;;
36379;SDS011;22411;53.016;18.632;2022-10-15T10:09:22;44.42;;;29.75;;
36379;SDS011;22411;53.016;18.632;2022-10-15T10:12:01;43.43;;;32.80;;
36379;SDS011;22411;53.016;18.632;2022-10-15T10:14:34;34.88;;;24.27;;
36379;SDS011;22411;53.016;18.632;2022-10-15T10:17:21;31.90;;;24.23;;
36379;SDS011;22411;53.016;18.632;2022-10-15T10:22:43;36.83;;;28.05;;
36379;SDS011;22411;53.016;18.632;2022-10-15T10:25:21;34.38;;;25.13;;
36379;SDS011;22411;53.016;18.632;2022-10-15T10:27:55;38.47;;;28.95;;
36379;SDS011;22411;53.016;18.632;2022-10-15T10:30:24;34.60;;;26.35;;
36379;SDS011;22411;53.016;18.632;2022-10-15T10:32:57;33.03;;;24.67;;
36379;SDS011;22411;53.016;18.632;2022-10-15T10:35:26;37.97;;;28.10;;
36379;SDS011;22411;53.016;18.632;2022-10-15T10:38:01;43.13;;;30.05;;
36379;SDS011;22411;53.016;18.632;2022-10-15T10:40:28;40.08;;;26.48;;
36379;SDS011;22411;53.016;18.632;2022-10-15T10:45:58;37.90;;;25.30;;
36379;SDS011;22411;53.016;18.632;2022-10-15T10:48:27;33.08;;;23.00;;
36379;SDS011;22411;53.016;18.632;2022-10-15T10:51:12;35.58;;;25.60;;
36379;SDS011;22411;53.016;18.632;2022-10-15T10:53:45;32.35;;;23.95;;
36379;SDS011;22411;53.016;18.632;2022-10-15T10:56:16;29.10;;;22.98;;
36379;SDS011;22411;53.016;18.632;2022-10-15T10:58:54;31.75;;;23.63;;
36379;SDS011;22411;53.016;18.632;2022-10-15T11:01:24;32.30;;;25.08;;
36379;SDS011;22411;53.016;18.632;2022-10-15T11:03:51;28.98;;;23.40;;
36379;SDS011;22411;53.016;18.632;2022-10-15T11:06:20;37.70;;;25.50;;
36379;SDS011;22411;53.016;18.632;2022-10-15T11:19:58;29.75;;;23.30;;
36379;SDS011;22411;53.016;18.632;2022-10-15T11:25:21;33.63;;;23.77;;
36379;SDS011;22411;53.016;18.632;2022-10-15T11:33:38;35.08;;;26.65;;
36379;SDS011;22411;53.016;18.632;2022-10-15T11:36:50;36.60;;;26.70;;
36379;SDS011;22411;53.016;18.632;2022-10-15T11:50:31;36.45;;;24.70;;
36379;SDS011;22411;53.016;18.632;2022-10-15T11:56:01;34.78;;;24.92;;
36379;SDS011;22411;53.016;18.632;2022-10-15T11:58:42;36.95;;;28.35;;
36379;SDS011;22411;53.016;18.632;2022-10-15T12:01:17;33.30;;;25.27;;
36379;SDS011;22411;53.016;18.632;2022-10-15T12:03:55;32.53;;;23.50;;
36379;SDS011;22411;53.016;18.632;2022-10-15T12:06:26;36.15;;;27.13;;
36379;SDS011;22411;53.016;18.632;2022-10-15T12:08:55;36.42;;;26.98;;
36379;SDS011;22411;53.016;18.632;2022-10-15T12:11:27;35.42;;;27.27;;
36379;SDS011;22411;53.016;18.632;2022-10-15T12:17:24;38.33;;;25.92;;
36379;SDS011;22411;53.016;18.632;2022-10-15T12:20:15;36.33;;;25.67;;
36379;SDS011;22411;53.016;18.632;2022-10-15T12:30:26;29.92;;;24.50;;
36379;SDS011;22411;53.016;18.632;2022-10-15T12:32:54;33.25;;;24.17;;
36379;SDS011;22411;53.016;18.632;2022-10-15T12:35:22;32.85;;;24.80;;
36379;SDS011;22411;53.016;18.632;2022-10-15T12:37:53;37.85;;;25.95;;
36379;SDS011;22411;53.016;18.632;2022-10-15T12:42:47;42.90;;;27.65;;
36379;SDS011;22411;53.016;18.632;2022-10-15T12:45:22;36.10;;;26.25;;
36379;SDS011;22411;53.016;18.632;2022-10-15T12:47:53;33.95;;;24.98;;
36379;SDS011;22411;53.016;18.632;2022-10-15T12:50:24;37.03;;;27.15;;
36379;SDS011;22411;53.016;18.632;2022-10-15T12:55:38;35.35;;;28.00;;
36379;SDS011;22411;53.016;18.632;2022-10-15T13:00:57;32.35;;;25.15;;
36379;SDS011;22411;53.016;18.632;2022-10-15T13:03:33;35.72;;;26.63;;
36379;SDS011;22411;53.016;18.632;2022-10-15T13:16:43;30.05;;;23.38;;
36379;SDS011;22411;53.016;18.632;2022-10-15T13:19:20;28.08;;;22.98;;
36379;SDS011;22411;53.016;18.632;2022-10-15T13:21:51;30.38;;;23.23;;
36379;SDS011;22411;53.016;18.632;2022-10-15T13:24:20;34.40;;;24.42;;
36379;SDS011;22411;53.016;18.632;2022-10-15T13:26:49;30.87;;;24.53;;
36379;SDS011;22411;53.016;18.632;2022-10-15T13:29:17;31.40;;;23.75;;
36379;SDS011;22411;53.016;18.632;2022-10-15T13:31:45;32.60;;;23.60;;
36379;SDS011;22411;53.016;18.632;2022-10-15T13:34:31;28.40;;;23.70;;
36379;SDS011;22411;53.016;18.632;2022-10-15T13:37:02;32.40;;;23.30;;
36379;SDS011;22411;53.016;18.632;2022-10-15T13:39:30;28.40;;;22.98;;
36379;SDS011;22411;53.016;18.632;2022-10-15T13:42:04;32.72;;;24.17;;
36379;SDS011;22411;53.016;18.632;2022-10-15T13:44:37;32.08;;;23.50;;
36379;SDS011;22411;53.016;18.632;2022-10-15T13:47:16;33.25;;;24.77;;
36379;SDS011;22411;53.016;18.632;2022-10-15T13:49:49;32.50;;;24.67;;
36379;SDS011;22411;53.016;18.632;2022-10-15T13:52:15;31.13;;;23.92;;
36379;SDS011;22411;53.016;18.632;2022-10-15T13:54:43;33.25;;;23.95;;
36379;SDS011;22411;53.016;18.632;2022-10-15T13:57:13;30.70;;;23.25;;
36379;SDS011;22411;53.016;18.632;2022-10-15T13:59:43;35.80;;;27.35;;
36379;SDS011;22411;53.016;18.632;2022-10-15T14:02:10;31.63;;;22.10;;
36379;SDS011;22411;53.016;18.632;2022-10-15T14:04:37;29.85;;;22.20;;
36379;SDS011;22411;53.016;18.632;2022-10-15T14:07:15;28.67;;;21.38;;
36379;SDS011;22411;53.016;18.632;2022-10-15T14:09:47;25.52;;;18.35;;
36379;SDS011;22411;53.016;18.632;2022-10-15T14:12:13;33.28;;;23.27;;
36379;SDS011;22411;53.016;18.632;2022-10-15T14:14:41;30.88;;;23.65;;
36379;SDS011;22411;53.016;18.632;2022-10-15T14:17:26;28.25;;;22.00;;
36379;SDS011;22411;53.016;18.632;2022-10-15T14:19:56;33.92;;;24.75;;
36379;SDS011;22411;53.016;18.632;2022-10-15T14:22:25;29.08;;;23.08;;
36379;SDS011;22411;53.016;18.632;2022-10-15T14:24:53;28.08;;;20.50;;
36379;SDS011;22411;53.016;18.632;2022-10-15T14:27:27;31.35;;;23.77;;
36379;SDS011;22411;53.016;18.632;2022-10-15T14:29:54;28.63;;;21.15;;
36379;SDS011;22411;53.016;18.632;2022-10-15T14:32:25;28.85;;;21.20;;
36379;SDS011;22411;53.016;18.632;2022-10-15T14:34:56;28.10;;;20.55;;
36379;SDS011;22411;53.016;18.632;2022-10-15T14:37:38;24.98;;;19.40;;
36379;SDS011;22411;53.016;18.632;2022-10-15T14:47:38;29.33;;;21.75;;
36379;SDS011;22411;53.016;18.632;2022-10-15T14:50:04;27.67;;;21.30;;
36379;SDS011;22411;53.016;18.632;2022-10-15T14:52:31;27.80;;;20.20;;
36379;SDS011;22411;53.016;18.632;2022-10-15T14:55:04;28.38;;;20.80;;
36379;SDS011;22411;53.016;18.632;2022-10-15T15:00:24;29.67;;;21.15;;
36379;SDS011;22411;53.016;18.632;2022-10-15T15:02:56;27.40;;;19.45;;
36379;SDS011;22411;53.016;18.632;2022-10-15T15:05:24;28.02;;;20.40;;
36379;SDS011;22411;53.016;18.632;2022-10-15T15:07:52;40.35;;;35.35;;
36379;SDS011;22411;53.016;18.632;2022-10-15T15:10:19;32.25;;;26.17;;
36379;SDS011;22411;53.016;18.632;2022-10-15T15:12:47;28.58;;;21.02;;
36379;SDS011;22411;53.016;18.632;2022-10-15T15:15:17;28.02;;;21.45;;
36379;SDS011;22411;53.016;18.632;2022-10-15T15:17:45;28.75;;;22.00;;
36379;SDS011;22411;53.016;18.632;2022-10-15T15:20:11;29.67;;;22.50;;
36379;SDS011;22411;53.016;18.632;2022-10-15T15:22:37;30.65;;;22.75;;
36379;SDS011;22411;53.016;18.632;2022-10-15T15:25:06;50.70;;;36.60;;
36379;SDS011;22411;53.016;18.632;2022-10-15T15:27:40;39.17;;;31.17;;
36379;SDS011;22411;53.016;18.632;2022-10-15T15:30:06;40.53;;;32.03;;
36379;SDS011;22411;53.016;18.632;2022-10-15T15:32:38;142.48;;;121.88;;
36379;SDS011;22411;53.016;18.632;2022-10-15T15:35:08;61.22;;;50.47;;
36379;SDS011;22411;53.016;18.632;2022-10-15T15:37:48;35.97;;;28.15;;
36379;SDS011;22411;53.016;18.632;2022-10-15T15:40:14;35.92;;;24.35;;
36379;SDS011;22411;53.016;18.632;2022-10-15T15:42:40;37.95;;;28.42;;
36379;SDS011;22411;53.016;18.632;2022-10-15T15:45:12;32.78;;;27.60;;
36379;SDS011;22411;53.016;18.632;2022-10-15T15:47:45;36.10;;;26.90;;
36379;SDS011;22411;53.016;18.632;2022-10-15T15:50:11;33.65;;;26.67;;
36379;SDS011;22411;53.016;18.632;2022-10-15T15:52:37;29.83;;;23.98;;
36379;SDS011;22411;53.016;18.632;2022-10-15T15:55:03;32.95;;;23.40;;
36379;SDS011;22411;53.016;18.632;2022-10-15T15:57:29;30.40;;;23.05;;
36379;SDS011;22411;53.016;18.632;2022-10-15T15:59:55;29.25;;;21.42;;
36379;SDS011;22411;53.016;18.632;2022-10-15T16:02:21;32.35;;;24.40;;
36379;SDS011;22411;53.016;18.632;2022-10-15T16:04:47;26.73;;;21.67;;
36379;SDS011;22411;53.016;18.632;2022-10-15T16:07:13;28.75;;;21.48;;
36379;SDS011;22411;53.016;18.632;2022-10-15T16:09:39;28.15;;;19.88;;
36379;SDS011;22411;53.016;18.632;2022-10-15T16:12:05;32.97;;;22.50;;
36379;SDS011;22411;53.016;18.632;2022-10-15T16:14:31;29.10;;;21.48;;
36379;SDS011;22411;53.016;18.632;2022-10-15T16:16:58;25.55;;;21.00;;
36379;SDS011;22411;53.016;18.632;2022-10-15T16:19:23;27.45;;;20.88;;
36379;SDS011;22411;53.016;18.632;2022-10-15T16:21:50;27.88;;;21.92;;
36379;SDS011;22411;53.016;18.632;2022-10-15T16:24:16;31.08;;;25.73;;
36379;SDS011;22411;53.016;18.632;2022-10-15T16:26:42;25.92;;;19.77;;
36379;SDS011;22411;53.016;18.632;2022-10-15T16:29:08;25.52;;;19.33;;
36379;SDS011;22411;53.016;18.632;2022-10-15T16:31:34;26.00;;;19.95;;
36379;SDS011;22411;53.016;18.632;2022-10-15T16:34:02;24.05;;;18.92;;
36379;SDS011;22411;53.016;18.632;2022-10-15T16:36:29;25.10;;;19.30;;
36379;SDS011;22411;53.016;18.632;2022-10-15T16:38:55;26.92;;;20.80;;
36379;SDS011;22411;53.016;18.632;2022-10-15T16:41:22;27.05;;;20.90;;
36379;SDS011;22411;53.016;18.632;2022-10-15T16:43:48;28.08;;;20.10;;
36379;SDS011;22411;53.016;18.632;2022-10-15T16:46:16;23.52;;;18.63;;
36379;SDS011;22411;53.016;18.632;2022-10-15T16:48:43;41.63;;;22.27;;